»·PEaware :: N982CA KSNA-KLAS

N982CA :: KSNA-KLAS

FLIGHT INFORMATION

Flight Status: Arrived
Operator: Privately registered:
United States
More flights under this callsign
Pilot: David C. (25479)
Aircraft: Unknown
(CJ4)
More flights by this aircraft type
Origin: KSNA John Wayne-Orange Co
United States
Destination: KLAS McCarran Intl
United States
More flights between these airports :: More routes between these airports
Route: FINZZ3 MISEN KEPEC6
File this flight plan on PilotEdge
Remarks:
Altitude:
(Current/Filed)
21,000ft
Speed:
(Current/Filed)
300kts
Departed: 13-Jan-21 08:07 PM
Arrived: 13-Jan-21 09:14 PM
Distance/Time
Traveled:
197nm/1:06
Distance/Time
To Go:
Arrived

Flight Plot

Page will automatically refresh every two minutes.

Flight plan parsing failed; only flown route is shown


Map Options




Map Legend


Flown Route
Filed Route
Departure Airport
Arrival Airport
Navaid (VOR, NDB)
Fix

Horizontal Profiles

Position Reports

Time Latitude Longitude Heading Altitude Ground
Speed
13-Jan-21 19:50 33.676901 -117.870432 48 45ft 0kts
13-Jan-21 19:51 33.676901 -117.870432 48 45ft 0kts
13-Jan-21 19:52 33.676901 -117.870432 48 45ft 0kts
13-Jan-21 19:53 33.676901 -117.870432 48 45ft 0kts
13-Jan-21 19:54 33.676901 -117.870432 48 45ft 0kts
13-Jan-21 19:55 33.676901 -117.870432 48 45ft 0kts
13-Jan-21 19:56 33.676901 -117.870432 48 45ft 0kts
13-Jan-21 19:57 33.676901 -117.870432 48 45ft 0kts
13-Jan-21 19:58 33.676901 -117.870432 48 45ft 0kts
13-Jan-21 19:59 33.676901 -117.870432 48 45ft 0kts
13-Jan-21 20:00 33.676901 -117.870432 48 45ft 0kts
13-Jan-21 20:01 33.677267 -117.869709 60 45ft 10kts
13-Jan-21 20:02 33.680754 -117.867293 27 44ft 20kts
13-Jan-21 20:03 33.681770 -117.865729 142 42ft 0kts
13-Jan-21 20:04 33.681917 -117.866220 97 43ft 0kts
13-Jan-21 20:05 33.681917 -117.866220 97 43ft 0kts
13-Jan-21 20:06 33.680367 -117.865915 206 43ft 50kts
13-Jan-21 20:07 33.644305 -117.886570 191 1944ft 172kts
13-Jan-21 20:08 33.593356 -117.895027 186 5080ft 192kts
13-Jan-21 20:09 33.547986 -117.924795 222 8151ft 196kts
13-Jan-21 20:10 33.500263 -117.980555 233 8027ft 257kts
13-Jan-21 20:11 33.522053 -118.056137 311 8012ft 259kts
13-Jan-21 20:12 33.568981 -118.115288 317 9343ft 235kts
13-Jan-21 20:13 33.626951 -118.107844 23 10827ft 218kts
13-Jan-21 20:14 33.680409 -118.076570 27 12328ft 211kts
13-Jan-21 20:15 33.739005 -118.042109 26 13827ft 278kts
13-Jan-21 20:16 33.816658 -117.996830 26 15346ft 354kts
13-Jan-21 20:17 33.905073 -117.944913 29 16839ft 337kts
13-Jan-21 20:18 33.975677 -117.880476 38 18302ft 306kts
13-Jan-21 20:19 34.040873 -117.821957 41 19763ft 282kts
13-Jan-21 20:20 34.099898 -117.764411 53 20882ft 273kts
13-Jan-21 20:21 34.149182 -117.688900 52 21185ft 302kts
13-Jan-21 20:22 34.205145 -117.606162 47 21266ft 333kts
13-Jan-21 20:23 34.265506 -117.516370 47 21265ft 351kts
13-Jan-21 20:24 34.327069 -117.423390 47 21275ft 359kts
13-Jan-21 20:25 34.390502 -117.328482 47 21257ft 365kts
13-Jan-21 20:26 34.454636 -117.232284 47 21260ft 369kts
13-Jan-21 20:27 34.519158 -117.135014 47 21264ft 371kts
13-Jan-21 20:28 34.585535 -117.037381 47 21266ft 378kts
13-Jan-21 20:29 34.653428 -116.938495 46 21253ft 384kts
13-Jan-21 20:30 34.722314 -116.837794 46 21271ft 389kts
13-Jan-21 20:31 34.791575 -116.736224 46 21280ft 393kts
13-Jan-21 20:32 34.862839 -116.634532 39 21261ft 392kts
13-Jan-21 20:33 34.948483 -116.553567 34 21333ft 389kts
13-Jan-21 20:34 35.033348 -116.470857 36 21337ft 391kts
13-Jan-21 20:35 35.117459 -116.386972 41 21345ft 383kts
13-Jan-21 20:36 35.186820 -116.297374 41 21325ft 342kts
13-Jan-21 20:37 35.250652 -116.217530 42 21331ft 317kts
13-Jan-21 20:38 35.310635 -116.141969 42 21352ft 302kts
13-Jan-21 20:39 35.368525 -116.069007 42 20813ft 308kts
13-Jan-21 20:40 35.431904 -115.989027 42 19060ft 341kts
13-Jan-21 20:41 35.499732 -115.903126 43 17346ft 357kts
13-Jan-21 20:42 35.570848 -115.813668 43 15558ft 372kts
13-Jan-21 20:43 35.643118 -115.722050 46 13816ft 353kts
13-Jan-21 20:44 35.700102 -115.649373 49 13363ft 267kts
13-Jan-21 20:45 35.752106 -115.583026 38 13347ft 274kts
13-Jan-21 20:46 35.828762 -115.570324 2 13341ft 280kts
13-Jan-21 20:47 35.906218 -115.567352 4 13310ft 276kts
13-Jan-21 20:48 35.974706 -115.540665 55 12970ft 270kts
13-Jan-21 20:49 36.003531 -115.461822 67 11657ft 247kts
13-Jan-21 20:50 36.026478 -115.389136 65 11326ft 200kts
13-Jan-21 20:51 36.027190 -115.320200 92 10527ft 184kts
13-Jan-21 20:52 36.022380 -115.254582 91 9404ft 196kts
13-Jan-21 20:53 36.016940 -115.181270 92 9126ft 226kts
13-Jan-21 20:54 36.012125 -115.110984 91 8340ft 168kts
13-Jan-21 20:55 36.008311 -115.047396 91 8338ft 194kts
13-Jan-21 20:56 36.004224 -114.980555 91 8331ft 195kts
13-Jan-21 20:57 36.000075 -114.913666 91 8323ft 195kts
13-Jan-21 20:58 35.995922 -114.848138 91 8021ft 187kts
13-Jan-21 20:59 35.991736 -114.782443 91 8000ft 194kts
13-Jan-21 21:00 35.987552 -114.716223 91 7992ft 193kts
13-Jan-21 21:01 35.983236 -114.649959 91 7988ft 193kts
13-Jan-21 21:02 36.010458 -114.637663 277 7986ft 190kts
13-Jan-21 21:03 36.044835 -114.675888 350 7958ft 185kts
13-Jan-21 21:04 36.073736 -114.721560 280 8027ft 195kts
13-Jan-21 21:05 36.073057 -114.789024 268 7694ft 183kts
13-Jan-21 21:07 36.074279 -114.843498 269 6528ft 147kts
13-Jan-21 21:08 36.074142 -114.896458 272 5164ft 154kts
13-Jan-21 21:09 36.074085 -114.943607 270 4897ft 134kts
13-Jan-21 21:10 36.073956 -114.997899 270 4137ft 165kts
13-Jan-21 21:11 36.073827 -115.054616 270 3178ft 161kts
13-Jan-21 21:12 36.073628 -115.106999 268 2402ft 121kts
13-Jan-21 21:13 36.073712 -115.141435 272 2100ft 45kts
13-Jan-21 21:14 36.074733 -115.145767 310 2118ft 0kts
13-Jan-21 21:15 36.074733 -115.145767 310 2118ft 0kts
13-Jan-21 21:16 36.077791 -115.146915 301 2125ft 11kts
13-Jan-21 21:17 36.079254 -115.146046 85 2118ft 23kts
13-Jan-21 21:18 36.082395 -115.146051 98 2103ft 13kts
13-Jan-21 21:19 36.082249 -115.145803 152 2102ft 0kts
13-Jan-21 21:20 36.082249 -115.145803 152 2102ft 0kts
13-Jan-21 21:21 36.082249 -115.145803 152 2102ft 0kts
13-Jan-21 21:21 36.082249 -115.145803 152 2102ft 0kts
13-Jan-21 21:23 36.082249 -115.145803 152 2102ft 0kts
13-Jan-21 21:24 36.082249 -115.145803 152 2102ft 0kts
13-Jan-21 21:24 36.082249 -115.145803 152 2102ft 0kts
13-Jan-21 21:26 36.082249 -115.145803 152 2102ft 0kts
13-Jan-21 21:26 36.082249 -115.145803 152 2102ft 0kts
13-Jan-21 21:27 36.082249 -115.145803 152 2102ft 0kts

Navigation Log

Ident Type
Flight plan parsing failed, navigation log unavailable